createdAt,value
2017-07-21T00:02:19.735Z,9.57
2017-07-21T00:04:46.399Z,8.10
2017-07-21T00:07:13.067Z,8.68
2017-07-21T00:09:39.728Z,8.77
2017-07-21T00:12:06.383Z,7.35
2017-07-21T00:14:33.040Z,8.18
2017-07-21T00:16:59.700Z,10.45
2017-07-21T00:19:26.360Z,9.55
2017-07-21T00:21:53.011Z,7.72
2017-07-21T00:24:19.675Z,8.93
2017-07-21T00:26:46.339Z,10.20
2017-07-21T00:29:12.995Z,7.53
2017-07-21T00:31:39.659Z,12.57
2017-07-21T00:34:06.316Z,9.32
2017-07-21T00:36:32.967Z,7.25
2017-07-21T00:38:59.624Z,7.60
2017-07-21T00:41:26.277Z,8.13
2017-07-21T00:43:52.935Z,8.75
2017-07-21T00:46:19.596Z,8.80
2017-07-21T00:48:46.256Z,8.18
2017-07-21T00:51:13.048Z,10.63
2017-07-21T00:53:39.711Z,6.93
2017-07-21T00:56:06.371Z,8.20
2017-07-21T00:58:33.048Z,8.25
2017-07-21T01:00:59.702Z,6.82
2017-07-21T01:03:26.386Z,9.43
2017-07-21T01:05:53.057Z,7.00
2017-07-21T01:08:19.743Z,8.68
2017-07-21T01:10:46.399Z,11.05
2017-07-21T01:13:13.088Z,7.10
2017-07-21T01:15:39.735Z,7.12
2017-07-21T01:18:06.392Z,7.87
2017-07-21T01:20:33.053Z,10.13
2017-07-21T01:22:59.713Z,15.85
2017-07-21T01:25:26.367Z,7.03
2017-07-21T01:27:53.026Z,9.10
2017-07-21T01:30:19.691Z,10.60
2017-07-21T01:32:46.351Z,10.80
2017-07-21T01:35:13.016Z,7.15
2017-07-21T01:37:39.676Z,8.77
2017-07-21T01:40:06.340Z,12.35
2017-07-21T01:42:33.002Z,10.00
2017-07-21T01:44:59.663Z,10.13
2017-07-21T01:47:26.318Z,12.05
2017-07-21T01:49:52.983Z,10.05
2017-07-21T01:52:19.643Z,14.27
2017-07-21T01:54:46.303Z,10.15
2017-07-21T01:57:12.963Z,12.23
2017-07-21T01:59:39.619Z,9.43
2017-07-21T02:02:06.279Z,11.50
2017-07-21T02:04:32.947Z,10.00
2017-07-21T02:06:59.611Z,10.85
2017-07-21T02:09:26.287Z,9.77
2017-07-21T02:11:52.948Z,10.88
2017-07-21T02:14:19.606Z,9.60
2017-07-21T02:16:46.259Z,12.95
2017-07-21T02:19:12.915Z,10.32
2017-07-21T02:21:39.574Z,8.98
2017-07-21T02:24:06.236Z,9.27
2017-07-21T02:26:32.901Z,12.75
2017-07-21T02:28:59.607Z,10.02
2017-07-21T02:31:26.267Z,13.15
2017-07-21T02:33:52.935Z,11.05
2017-07-21T02:36:19.622Z,12.32
2017-07-21T02:38:46.291Z,18.73
2017-07-21T02:41:12.976Z,14.07
2017-07-21T02:43:39.636Z,16.17
2017-07-21T02:46:06.323Z,17.27
2017-07-21T02:48:32.982Z,12.63
2017-07-21T02:50:59.672Z,10.45
2017-07-21T02:53:26.343Z,12.20
2017-07-21T02:55:53.045Z,17.77
2017-07-21T02:58:19.712Z,13.50
2017-07-21T03:00:46.403Z,11.40
2017-07-21T03:03:13.064Z,11.95
2017-07-21T03:05:39.751Z,13.82
2017-07-21T03:08:06.411Z,12.57
2017-07-21T03:10:33.108Z,17.70
2017-07-21T03:12:59.771Z,14.10
2017-07-21T03:15:26.459Z,29.27
2017-07-21T03:17:53.129Z,13.23
2017-07-21T03:20:19.815Z,17.02
2017-07-21T03:22:52.311Z,22.77
2017-07-21T03:25:19.010Z,13.48
2017-07-21T03:27:45.680Z,13.70
2017-07-21T03:30:12.371Z,16.70
2017-07-21T03:32:39.035Z,13.10
2017-07-21T03:35:05.722Z,15.00
2017-07-21T03:37:32.383Z,12.50
2017-07-21T03:39:59.066Z,15.55
2017-07-21T03:42:25.730Z,14.35
2017-07-21T03:44:52.420Z,15.68
2017-07-21T03:47:19.078Z,13.88
2017-07-21T03:49:45.750Z,14.05
2017-07-21T03:52:12.420Z,12.43
2017-07-21T03:54:39.092Z,14.52
2017-07-21T03:57:05.768Z,15.52
2017-07-21T03:59:32.432Z,15.90
2017-07-21T04:01:59.094Z,13.68
2017-07-21T04:04:26.031Z,13.75
2017-07-21T04:06:52.695Z,11.75
2017-07-21T04:09:19.363Z,14.05
2017-07-21T04:11:46.031Z,14.18
2017-07-21T04:14:12.704Z,16.37
2017-07-21T04:16:39.399Z,14.57
2017-07-21T04:19:06.076Z,13.25
2017-07-21T04:21:32.764Z,12.80
2017-07-21T04:23:59.435Z,14.70
2017-07-21T04:26:26.124Z,15.15
2017-07-21T04:28:52.792Z,15.13
2017-07-21T04:31:19.483Z,11.55
2017-07-21T04:33:46.144Z,12.93
2017-07-21T04:36:12.839Z,14.85
2017-07-21T04:38:39.527Z,10.65
2017-07-21T04:41:06.211Z,12.65
2017-07-21T04:43:32.877Z,12.43
2017-07-21T04:45:59.570Z,16.60
2017-07-21T04:48:26.231Z,14.15
2017-07-21T04:50:52.915Z,11.60
2017-07-21T04:53:19.586Z,14.38
2017-07-21T04:55:46.271Z,14.05
2017-07-21T04:58:12.943Z,11.82
2017-07-21T05:00:39.603Z,12.75
2017-07-21T05:03:06.267Z,10.70
2017-07-21T05:05:33.036Z,14.38
2017-07-21T05:07:59.696Z,10.38
2017-07-21T05:10:26.359Z,10.02
2017-07-21T05:12:53.031Z,11.70
2017-07-21T05:15:19.699Z,12.55
2017-07-21T05:17:46.363Z,10.63
2017-07-21T05:20:13.028Z,11.10
2017-07-21T05:22:39.687Z,12.18
2017-07-21T05:25:06.354Z,10.43
2017-07-21T05:27:33.015Z,10.10
2017-07-21T05:29:59.668Z,9.70
2017-07-21T05:32:26.339Z,15.90
2017-07-21T05:34:53.016Z,12.30
2017-07-21T05:37:19.675Z,10.83
2017-07-21T05:39:46.336Z,9.10
2017-07-21T05:42:13.023Z,8.20
2017-07-21T05:44:39.683Z,9.30
2017-07-21T05:47:06.360Z,8.00
2017-07-21T05:49:33.019Z,10.30
2017-07-21T05:51:59.712Z,8.13
2017-07-21T05:54:26.371Z,8.00
2017-07-21T05:56:53.059Z,8.77
2017-07-21T05:59:19.716Z,8.90
2017-07-21T06:01:46.403Z,7.73
2017-07-21T06:04:13.059Z,7.90
2017-07-21T06:06:39.751Z,9.47
2017-07-21T06:09:06.410Z,9.07
2017-07-21T06:11:33.067Z,11.60
2017-07-21T06:13:59.738Z,9.10
2017-07-21T06:16:26.407Z,11.77
2017-07-21T06:18:53.081Z,10.70
2017-07-21T06:21:19.743Z,8.80
2017-07-21T06:23:46.399Z,8.60
2017-07-21T06:26:13.059Z,9.50
2017-07-21T06:28:39.722Z,10.00
2017-07-21T06:31:06.380Z,8.63
2017-07-21T06:33:33.035Z,9.63
2017-07-21T06:35:59.705Z,10.80
2017-07-21T06:38:26.361Z,9.93
2017-07-21T06:40:53.022Z,8.70
2017-07-21T06:43:19.671Z,9.27
2017-07-21T06:45:46.325Z,8.87
2017-07-21T06:48:13.000Z,9.50
2017-07-21T06:50:39.656Z,9.77
2017-07-21T06:53:06.304Z,8.40
2017-07-21T06:55:32.963Z,8.97
2017-07-21T06:57:59.624Z,11.97
2017-07-21T07:00:26.290Z,10.83
2017-07-21T07:02:52.956Z,8.67
2017-07-21T07:05:19.620Z,9.70
2017-07-21T07:07:46.316Z,8.10
2017-07-21T07:10:12.982Z,7.23
2017-07-21T07:12:39.665Z,7.97
2017-07-21T07:15:06.323Z,6.63
2017-07-21T07:17:33.014Z,11.67
2017-07-21T07:19:59.677Z,7.47
2017-07-21T07:22:26.346Z,6.87
2017-07-21T07:24:53.009Z,7.13
2017-07-21T07:27:19.671Z,6.70
2017-07-21T07:29:46.331Z,7.03
2017-07-21T07:32:12.995Z,6.47
2017-07-21T07:34:39.656Z,6.40
2017-07-21T07:37:06.312Z,8.63
2017-07-21T07:39:32.981Z,9.00
2017-07-21T07:41:59.639Z,7.70
2017-07-21T07:44:26.300Z,7.40
2017-07-21T07:46:52.967Z,8.07
2017-07-21T07:49:19.632Z,10.20
2017-07-21T07:51:46.300Z,7.50
2017-07-21T07:54:12.956Z,6.97
2017-07-21T07:56:39.620Z,6.87
2017-07-21T07:59:06.280Z,6.70
2017-07-21T08:01:32.943Z,7.67
2017-07-21T08:03:59.601Z,5.80
2017-07-21T08:06:26.260Z,6.30
2017-07-21T08:08:52.920Z,5.83
2017-07-21T08:11:19.579Z,8.90
2017-07-21T08:13:46.241Z,5.67
2017-07-21T08:16:12.915Z,5.93
2017-07-21T08:18:39.579Z,5.60
2017-07-21T08:21:06.236Z,6.13
2017-07-21T08:23:32.915Z,6.07
2017-07-21T08:25:59.572Z,6.97
2017-07-21T08:28:26.270Z,6.03
2017-07-21T08:30:52.919Z,5.93
2017-07-21T08:33:19.576Z,5.80
2017-07-21T08:35:46.260Z,5.47
2017-07-21T08:38:12.916Z,6.40
2017-07-21T08:40:39.596Z,6.40
2017-07-21T08:43:06.253Z,7.20
2017-07-21T08:45:32.934Z,5.97
2017-07-21T08:47:59.586Z,7.97
2017-07-21T08:50:26.271Z,7.40
2017-07-21T08:52:52.947Z,4.90
2017-07-21T08:55:19.639Z,5.50
2017-07-21T08:57:46.297Z,7.20
2017-07-21T09:00:12.975Z,6.40
2017-07-21T09:02:39.631Z,9.10
2017-07-21T09:05:06.321Z,6.50
2017-07-21T09:07:32.980Z,5.77
2017-07-21T09:09:59.666Z,6.30
2017-07-21T09:12:26.320Z,6.83
2017-07-21T09:14:52.999Z,8.13
2017-07-21T09:17:19.664Z,5.13
2017-07-21T09:19:46.343Z,5.63
2017-07-21T09:22:13.017Z,6.00
2017-07-21T09:24:39.712Z,6.90
2017-07-21T09:27:06.375Z,7.87
2017-07-21T09:29:33.064Z,6.37
2017-07-21T09:31:59.723Z,5.80
2017-07-21T09:34:26.411Z,4.80
2017-07-21T09:36:53.075Z,7.07
2017-07-21T09:39:19.778Z,5.00
2017-07-21T09:41:46.444Z,6.80
2017-07-21T09:44:13.153Z,4.40
2017-07-21T09:46:39.827Z,6.10
2017-07-21T09:49:06.490Z,6.70
2017-07-21T09:51:33.152Z,5.50
2017-07-21T09:53:59.820Z,5.00
2017-07-21T09:56:26.504Z,5.93
2017-07-21T09:58:53.161Z,5.37
2017-07-21T10:01:19.846Z,5.00
2017-07-21T10:03:46.514Z,8.00
2017-07-21T10:06:13.196Z,5.40
2017-07-21T10:08:39.856Z,7.60
2017-07-21T10:11:06.541Z,7.47
2017-07-21T10:13:33.197Z,5.80
2017-07-21T10:15:59.893Z,4.70
2017-07-21T10:18:26.556Z,6.77
2017-07-21T10:20:53.235Z,7.87
2017-07-21T10:23:19.900Z,6.37
2017-07-21T10:25:46.597Z,5.40
2017-07-21T10:28:13.264Z,5.37
2017-07-21T10:30:39.973Z,5.80
2017-07-21T10:33:06.635Z,7.83
2017-07-21T10:35:33.328Z,7.03
2017-07-21T10:37:59.986Z,6.30
2017-07-21T10:40:26.678Z,6.63
2017-07-21T10:42:53.339Z,7.93
2017-07-21T10:45:20.000Z,5.27
2017-07-21T10:47:46.662Z,6.70
2017-07-21T10:50:13.324Z,5.20
2017-07-21T10:52:39.993Z,5.03
2017-07-21T10:55:06.668Z,6.50
2017-07-21T10:57:33.341Z,7.60
2017-07-21T10:59:59.999Z,6.53
2017-07-21T11:02:26.669Z,4.13
2017-07-21T11:04:53.341Z,4.87
2017-07-21T11:07:20.002Z,5.10
2017-07-21T11:09:46.662Z,6.90
2017-07-21T11:12:13.328Z,7.27
2017-07-21T11:14:39.983Z,4.60
2017-07-21T11:17:06.650Z,5.87
2017-07-21T11:19:33.315Z,5.47
2017-07-21T11:22:00.000Z,5.83
2017-07-21T11:24:26.659Z,4.83
2017-07-21T11:26:53.347Z,5.23
2017-07-21T11:29:20.012Z,8.10
2017-07-21T11:31:46.694Z,5.20
2017-07-21T11:34:13.376Z,8.33
2017-07-21T11:36:40.059Z,5.30
2017-07-21T11:39:06.719Z,5.40
2017-07-21T11:41:33.405Z,5.80
2017-07-21T11:44:00.060Z,6.70
2017-07-21T11:46:26.747Z,5.73
2017-07-21T11:48:53.407Z,6.17
2017-07-21T11:51:20.091Z,6.90
2017-07-21T11:53:47.776Z,5.80
2017-07-21T11:56:14.471Z,6.47
2017-07-21T11:58:41.136Z,6.27
2017-07-21T12:01:07.804Z,5.33
2017-07-21T12:03:34.460Z,6.90
2017-07-21T12:06:01.120Z,6.00
2017-07-21T12:08:27.780Z,6.80
2017-07-21T12:10:54.442Z,7.87
2017-07-21T12:13:21.100Z,6.40
2017-07-21T12:15:47.759Z,5.83
2017-07-21T12:18:14.422Z,5.40
2017-07-21T12:20:41.458Z,6.33
2017-07-21T12:23:08.119Z,5.90
2017-07-21T12:25:34.784Z,6.40
2017-07-21T12:28:01.479Z,7.80
2017-07-21T12:30:28.145Z,5.77
2017-07-21T12:32:54.804Z,6.50
2017-07-21T12:35:21.467Z,7.60
2017-07-21T12:37:48.135Z,5.67
2017-07-21T12:40:14.796Z,7.63
2017-07-21T12:42:41.455Z,5.77
2017-07-21T12:45:08.115Z,6.97
2017-07-21T12:47:34.772Z,5.83
2017-07-21T12:50:01.440Z,5.60
2017-07-21T12:52:28.128Z,7.93
2017-07-21T12:54:54.788Z,4.80
2017-07-21T12:57:21.480Z,6.80
2017-07-21T12:59:48.135Z,7.03
2017-07-21T13:02:14.819Z,7.60
2017-07-21T13:04:41.483Z,11.90
2017-07-21T13:07:08.173Z,6.27
2017-07-21T13:09:34.830Z,5.90
2017-07-21T13:12:01.523Z,6.40
2017-07-21T13:14:28.179Z,6.63
2017-07-21T13:16:54.839Z,6.83
2017-07-21T13:19:21.535Z,6.80
2017-07-21T13:21:48.196Z,6.90
2017-07-21T13:24:14.851Z,5.43
2017-07-21T13:26:41.503Z,6.20
2017-07-21T13:29:08.164Z,5.87
2017-07-21T13:31:34.822Z,5.03
2017-07-21T13:34:01.475Z,7.00
2017-07-21T13:36:28.131Z,5.93
2017-07-21T13:38:54.787Z,6.50
2017-07-21T13:41:21.447Z,7.17
2017-07-21T13:43:48.116Z,6.90
2017-07-21T13:46:14.790Z,7.10
2017-07-21T13:48:41.455Z,6.23
2017-07-21T13:51:08.116Z,7.20
2017-07-21T13:53:34.771Z,6.13
2017-07-21T13:56:01.428Z,9.10
2017-07-21T13:58:28.091Z,6.57
2017-07-21T14:00:54.748Z,5.67
2017-07-21T14:03:21.419Z,5.43
2017-07-21T14:05:48.088Z,6.57
2017-07-21T14:08:14.783Z,7.77
2017-07-21T14:10:41.445Z,6.67
2017-07-21T14:13:08.127Z,5.60
2017-07-21T14:15:34.791Z,7.77
2017-07-21T14:18:01.475Z,6.10
2017-07-21T14:20:28.132Z,7.73
2017-07-21T14:22:54.820Z,6.10
2017-07-21T14:25:21.476Z,8.57
2017-07-21T14:27:48.682Z,7.80
2017-07-21T14:30:15.402Z,5.83
2017-07-21T14:32:42.064Z,7.70
2017-07-21T14:35:08.757Z,7.60
2017-07-21T14:37:35.467Z,5.90
2017-07-21T14:40:02.153Z,7.37
2017-07-21T14:42:28.832Z,6.20
2017-07-21T14:44:55.519Z,6.67
2017-07-21T14:47:22.178Z,6.80
2017-07-21T14:49:48.867Z,6.40
2017-07-21T14:52:15.529Z,7.10
2017-07-21T14:54:42.217Z,7.07
2017-07-21T14:57:08.879Z,6.03
2017-07-21T14:59:35.560Z,5.47
2017-07-21T15:02:02.211Z,6.30
2017-07-21T15:04:28.900Z,5.60
2017-07-21T15:06:55.559Z,6.60
2017-07-21T15:09:22.237Z,5.93
2017-07-21T15:11:48.908Z,5.87
2017-07-21T15:14:15.596Z,8.27
2017-07-21T15:16:42.257Z,7.60
2017-07-21T15:19:08.955Z,7.17
2017-07-21T15:21:35.623Z,6.03
2017-07-21T15:24:02.307Z,10.43
2017-07-21T15:26:28.969Z,7.63
2017-07-21T15:28:55.663Z,7.70
2017-07-21T15:31:22.419Z,6.20
2017-07-21T15:33:49.113Z,9.30
2017-07-21T15:36:15.783Z,12.90
2017-07-21T15:38:42.431Z,9.80
2017-07-21T15:41:09.095Z,9.37
2017-07-21T15:43:35.760Z,9.43
2017-07-21T15:46:02.419Z,9.23
2017-07-21T15:48:29.080Z,8.67
2017-07-21T15:50:55.738Z,8.30
2017-07-21T15:53:22.451Z,7.20
2017-07-21T15:55:49.109Z,10.43
2017-07-21T15:58:15.786Z,7.30
2017-07-21T16:00:42.464Z,6.93
2017-07-21T16:03:09.127Z,7.50
2017-07-21T16:05:35.820Z,11.37
2017-07-21T16:08:02.480Z,9.40
2017-07-21T16:10:29.165Z,9.30
2017-07-21T16:12:55.823Z,9.93
2017-07-21T16:15:22.521Z,11.30
2017-07-21T16:17:49.176Z,8.83
2017-07-21T16:20:15.870Z,8.57
2017-07-21T16:22:42.627Z,9.50
2017-07-21T16:25:09.310Z,8.63
2017-07-21T16:27:35.980Z,7.57
2017-07-21T16:30:02.668Z,7.83
2017-07-21T16:32:29.337Z,7.20
2017-07-21T16:34:56.030Z,6.90
2017-07-21T16:37:22.699Z,9.80
2017-07-21T16:39:49.392Z,7.43
2017-07-21T16:42:16.057Z,9.63
2017-07-21T16:44:42.734Z,6.23
2017-07-21T16:47:09.399Z,7.60
2017-07-21T16:49:36.099Z,6.57
2017-07-21T16:52:02.848Z,11.40
2017-07-21T16:54:29.508Z,6.23
2017-07-21T16:56:56.172Z,11.27
2017-07-21T16:59:22.834Z,7.07
2017-07-21T17:01:49.606Z,6.47
2017-07-21T17:04:16.278Z,6.70
2017-07-21T17:06:42.940Z,6.47
2017-07-21T17:09:09.598Z,8.03
2017-07-21T17:11:36.259Z,9.20
2017-07-21T17:14:02.925Z,7.17
2017-07-21T17:16:29.594Z,6.63
2017-07-21T17:18:56.252Z,7.83
2017-07-21T17:21:22.907Z,7.60
2017-07-21T17:23:49.567Z,7.30
2017-07-21T17:26:16.228Z,9.87
2017-07-21T17:28:42.883Z,6.67
2017-07-21T17:31:09.580Z,8.03
2017-07-21T17:33:36.244Z,7.13
2017-07-21T17:36:02.932Z,6.87
2017-07-21T17:38:29.588Z,8.20
2017-07-21T17:40:56.271Z,8.13
2017-07-21T17:43:22.935Z,11.13
2017-07-21T17:45:49.632Z,7.77
2017-07-21T17:48:16.288Z,7.90
2017-07-21T17:50:42.980Z,12.23
2017-07-21T17:53:09.642Z,7.43
2017-07-21T17:55:36.328Z,8.63
2017-07-21T17:58:02.995Z,9.07
2017-07-21T18:00:29.680Z,10.67
2017-07-21T18:02:56.345Z,10.80
2017-07-21T18:05:23.007Z,10.97
2017-07-21T18:07:49.667Z,8.80
2017-07-21T18:10:16.331Z,8.17
2017-07-21T18:12:42.992Z,9.40
2017-07-21T18:15:09.659Z,9.10
2017-07-21T18:17:36.316Z,9.27
2017-07-21T18:20:02.984Z,10.30
2017-07-21T18:22:29.652Z,8.00
2017-07-21T18:24:56.307Z,9.20
2017-07-21T18:27:22.971Z,8.10
2017-07-21T18:29:49.639Z,8.50
2017-07-21T18:32:16.308Z,8.17
2017-07-21T18:34:42.960Z,8.00
2017-07-21T18:37:09.615Z,9.00
2017-07-21T18:39:36.278Z,8.03
2017-07-21T18:42:02.931Z,9.07
2017-07-21T18:44:29.591Z,10.13
2017-07-21T18:46:56.256Z,9.47
2017-07-21T18:49:22.915Z,10.10
2017-07-21T18:51:49.597Z,10.23
2017-07-21T18:54:16.271Z,10.77
2017-07-21T18:56:42.959Z,9.40
2017-07-21T18:59:09.623Z,10.97
2017-07-21T19:01:36.312Z,10.20
2017-07-21T19:04:02.977Z,11.67
2017-07-21T19:06:29.670Z,10.50
2017-07-21T19:08:56.336Z,10.27
2017-07-21T19:11:23.004Z,11.43
2017-07-21T19:13:49.676Z,11.30
2017-07-21T19:16:16.443Z,10.67
2017-07-21T19:18:43.111Z,10.50
2017-07-21T19:21:09.784Z,10.20
2017-07-21T19:23:36.460Z,12.40
2017-07-21T19:26:03.141Z,12.48
2017-07-21T19:28:29.803Z,10.23
2017-07-21T19:30:56.483Z,11.32
2017-07-21T19:33:23.160Z,11.27
2017-07-21T19:35:49.848Z,11.60
2017-07-21T19:38:16.522Z,9.98
2017-07-21T19:40:43.201Z,11.63
2017-07-21T19:43:09.988Z,11.12
2017-07-21T19:45:36.757Z,12.30
2017-07-21T19:48:03.431Z,11.18
2017-07-21T19:50:30.123Z,11.40
2017-07-21T19:52:56.791Z,10.10
2017-07-21T19:55:23.482Z,10.82
2017-07-21T19:57:50.162Z,10.40
2017-07-21T20:00:16.835Z,11.15
2017-07-21T20:02:43.504Z,9.95
2017-07-21T20:05:10.225Z,9.75
2017-07-21T20:07:36.904Z,10.15
2017-07-21T20:10:03.567Z,9.52
2017-07-21T20:12:30.228Z,9.85
2017-07-21T20:14:56.901Z,10.70
2017-07-21T20:17:23.569Z,10.05
2017-07-21T20:19:50.240Z,10.20
2017-07-21T20:22:16.913Z,11.88
2017-07-21T20:24:43.596Z,11.57
2017-07-21T20:27:10.276Z,11.77
2017-07-21T20:29:36.972Z,12.00
2017-07-21T20:32:03.639Z,11.07
2017-07-21T20:34:30.339Z,11.48
2017-07-21T20:36:57.016Z,11.70
2017-07-21T20:39:23.717Z,15.05
2017-07-21T20:41:50.400Z,11.50
2017-07-21T20:44:17.101Z,11.55
2017-07-21T20:46:43.771Z,11.00
2017-07-21T20:49:10.459Z,11.93
2017-07-21T20:51:37.128Z,13.57
2017-07-21T20:54:03.832Z,12.80
2017-07-21T20:56:30.501Z,12.80
2017-07-21T20:58:57.192Z,11.52
2017-07-21T21:01:23.872Z,13.85
2017-07-21T21:03:50.564Z,12.68
2017-07-21T21:06:17.231Z,13.70
2017-07-21T21:08:43.924Z,12.85
2017-07-21T21:11:10.592Z,12.43
2017-07-21T21:13:37.283Z,13.50
2017-07-21T21:16:03.954Z,13.65
2017-07-21T21:18:30.656Z,15.10
2017-07-21T21:20:57.331Z,14.18
2017-07-21T21:23:24.033Z,16.65
2017-07-21T21:25:50.704Z,15.43
2017-07-21T21:28:17.398Z,15.75
2017-07-21T21:30:44.063Z,14.30
2017-07-21T21:33:10.737Z,13.52
2017-07-21T21:35:37.412Z,14.02
2017-07-21T21:38:04.080Z,13.27
2017-07-21T21:40:30.748Z,12.02
2017-07-21T21:42:57.415Z,13.68
2017-07-21T21:45:24.087Z,11.98
2017-07-21T21:47:50.756Z,12.52
2017-07-21T21:50:17.448Z,12.55
2017-07-21T21:52:44.119Z,12.02
2017-07-21T21:55:10.808Z,11.90
2017-07-21T21:57:37.476Z,11.30
2017-07-21T22:00:04.172Z,11.00
2017-07-21T22:02:30.841Z,11.95
2017-07-21T22:04:57.529Z,11.10
2017-07-21T22:07:24.183Z,10.80
2017-07-21T22:09:50.864Z,9.98
2017-07-21T22:12:17.524Z,12.25
2017-07-21T22:14:44.519Z,10.27
2017-07-21T22:17:11.188Z,10.65
2017-07-21T22:19:37.879Z,10.70
2017-07-21T22:22:04.543Z,12.35
2017-07-21T22:24:31.235Z,11.40
2017-07-21T22:26:58.729Z,12.07
2017-07-21T22:29:25.423Z,11.15
2017-07-21T22:31:52.092Z,11.73
2017-07-21T22:34:18.784Z,9.60
2017-07-21T22:36:45.447Z,10.25
2017-07-21T22:39:12.141Z,12.88
2017-07-21T22:41:38.823Z,11.00
2017-07-21T22:44:05.495Z,11.48
2017-07-21T22:46:32.160Z,10.13
2017-07-21T22:48:58.820Z,10.82
2017-07-21T22:51:25.489Z,10.02
2017-07-21T22:53:52.148Z,10.30
2017-07-21T22:56:18.808Z,9.95
2017-07-21T22:58:45.460Z,8.20
2017-07-21T23:01:12.899Z,9.57
2017-07-21T23:03:39.561Z,9.77
2017-07-21T23:06:06.223Z,9.13
2017-07-21T23:08:32.883Z,9.98
2017-07-21T23:10:59.539Z,9.43
2017-07-21T23:13:26.209Z,10.13
2017-07-21T23:15:52.863Z,9.60
2017-07-21T23:18:19.519Z,10.15
2017-07-21T23:20:46.216Z,10.85
2017-07-21T23:23:12.881Z,10.73
2017-07-21T23:25:39.567Z,11.20
2017-07-21T23:28:06.227Z,10.30
2017-07-21T23:30:32.907Z,10.07
2017-07-21T23:32:59.567Z,10.70
2017-07-21T23:35:26.248Z,9.93
2017-07-21T23:37:52.915Z,9.93
2017-07-21T23:40:19.612Z,10.43
2017-07-21T23:42:46.269Z,9.05
2017-07-21T23:45:13.009Z,10.63
2017-07-21T23:47:39.666Z,10.38
2017-07-21T23:50:06.327Z,9.75
2017-07-21T23:52:32.988Z,9.88
2017-07-21T23:54:59.649Z,9.43
2017-07-21T23:57:26.312Z,10.35
2017-07-21T23:59:52.974Z,9.20
